Time;durP1;ratioP1;P1;durP2;ratioP2;P2;SDS_P1;SDS_P2;PMS_P1;PMS_P2;Temp;Humidity;BMP_temperature;BMP_pressure;BME280_temperature;BME280_humidity;BME280_pressure;Samples;Min_cycle;Max_cycle;Signal;HPM_P1;HPM_P2
2023/08/08 00:02:13;;;;;;;5.68;1.20;;;15.40;99.90;;;;;;6247664;23;20016;-78
2023/08/08 00:04:38;;;;;;;7.35;1.30;;;15.40;99.90;;;;;;6215307;23;20021;-78
2023/08/08 00:07:04;;;;;;;6.80;1.20;;;15.40;99.90;;;;;;6190620;23;20048;-79
2023/08/08 00:09:30;;;;;;;7.40;1.38;;;15.40;99.90;;;;;;6190529;23;20067;-78
2023/08/08 00:11:57;;;;;;;8.60;1.48;;;15.40;99.90;;;;;;6190549;23;20012;-78
2023/08/08 00:14:26;;;;;;;9.15;1.40;;;15.30;99.90;;;;;;6215651;23;20075;-78
2023/08/08 00:16:51;;;;;;;7.13;1.23;;;15.40;99.90;;;;;;6217306;23;20044;-79
2023/08/08 00:19:17;;;;;;;6.30;1.42;;;15.30;99.90;;;;;;6190519;23;20027;-79
2023/08/08 00:21:42;;;;;;;5.32;1.02;;;15.30;99.90;;;;;;6216995;23;20099;-79
2023/08/08 00:24:08;;;;;;;5.93;1.00;;;15.30;99.90;;;;;;6190403;23;20020;-79
2023/08/08 00:26:34;;;;;;;3.95;1.05;;;15.30;99.90;;;;;;6165465;23;20020;-79
2023/08/08 00:28:59;;;;;;;6.18;1.40;;;15.30;99.90;;;;;;6190368;23;20385;-79
2023/08/08 00:31:25;;;;;;;4.20;1.13;;;15.30;99.90;;;;;;6190360;23;20023;-79
2023/08/08 00:33:51;;;;;;;4.43;1.10;;;15.20;99.90;;;;;;6216852;23;20027;-79
2023/08/08 00:36:16;;;;;;;4.53;1.45;;;15.30;99.90;;;;;;6190252;23;20016;-79
2023/08/08 00:38:42;;;;;;;5.38;1.23;;;15.20;99.90;;;;;;6190751;23;20062;-79
2023/08/08 00:41:07;;;;;;;3.67;1.02;;;15.20;99.90;;;;;;6216871;23;20384;-79
2023/08/08 00:43:33;;;;;;;5.72;1.67;;;15.10;99.90;;;;;;6217231;23;20016;-79
2023/08/08 00:45:59;;;;;;;4.57;1.17;;;15.10;99.90;;;;;;6190320;23;20028;-79
2023/08/08 00:48:25;;;;;;;6.45;1.35;;;15.10;99.90;;;;;;6190031;23;20024;-79
2023/08/08 00:50:51;;;;;;;6.30;1.85;;;15.10;99.90;;;;;;6190231;23;20020;-79
2023/08/08 00:53:19;;;;;;;6.60;1.40;;;15.10;99.90;;;;;;6190080;23;20017;-79
2023/08/08 00:55:46;;;;;;;3.72;1.15;;;15.00;99.90;;;;;;6217037;23;20059;-80
2023/08/08 00:58:12;;;;;;;6.05;1.40;;;15.00;99.90;;;;;;6216940;23;20411;-79
2023/08/08 01:00:38;;;;;;;5.38;1.10;;;15.10;99.90;;;;;;6216955;23;20009;-78
2023/08/08 01:03:04;;;;;;;8.25;1.50;;;15.10;99.90;;;;;;6190036;23;20526;-79
2023/08/08 01:05:43;;;;;;;3.58;1.67;;;15.10;99.90;;;;;;6219872;23;20020;-79
2023/08/08 01:08:08;;;;;;;6.45;1.35;;;15.10;99.90;;;;;;6220044;23;20028;-79
2023/08/08 01:10:40;;;;;;;9.23;1.50;;;15.10;99.90;;;;;;6220240;23;20022;-79
2023/08/08 01:13:10;;;;;;;8.05;1.50;;;15.00;99.90;;;;;;6246971;23;20066;-80
2023/08/08 01:15:37;;;;;;;7.75;1.30;;;15.00;99.90;;;;;;6220059;23;20310;-79
2023/08/08 01:18:08;;;;;;;5.22;1.23;;;15.00;99.90;;;;;;6220045;23;20024;-79
2023/08/08 01:20:34;;;;;;;4.22;1.15;;;15.00;99.90;;;;;;6219977;23;20015;-79
2023/08/08 01:23:18;;;;;;;4.00;1.25;;;15.00;99.90;;;;;;6219901;23;20095;-80
2023/08/08 01:25:47;;;;;;;6.68;1.52;;;15.00;99.90;;;;;;6220091;23;20054;-79
2023/08/08 01:28:13;;;;;;;7.80;1.50;;;15.00;99.90;;;;;;6220288;23;20023;-79
2023/08/08 01:30:39;;;;;;;7.72;1.40;;;15.00;99.90;;;;;;6219866;23;20024;-79
2023/08/08 01:33:06;;;;;;;5.93;1.45;;;15.10;99.90;;;;;;6247055;23;20091;-79
2023/08/08 01:35:39;;;;;;;7.78;1.35;;;15.20;99.90;;;;;;6219955;23;20020;-79
2023/08/08 01:38:10;;;;;;;;;;;15.20;99.90;;;;;;6219958;23;20027;-79
2023/08/08 01:40:36;;;;;;;6.15;1.25;;;15.30;99.90;;;;;;6245174;23;19915;-79
2023/08/08 01:43:03;;;;;;;6.65;1.05;;;15.30;99.90;;;;;;6219753;23;20020;-79
2023/08/08 01:45:29;;;;;;;7.80;1.20;;;15.40;99.90;;;;;;6219718;23;20062;-79
2023/08/08 01:47:55;;;;;;;6.00;1.23;;;15.30;99.90;;;;;;6219711;23;20024;-79
2023/08/08 01:50:27;;;;;;;5.82;1.30;;;15.40;99.90;;;;;;6219551;23;20397;-79
2023/08/08 01:52:53;;;;;;;5.95;1.38;;;15.30;99.90;;;;;;6219805;23;20039;-79
2023/08/08 01:55:18;;;;;;;10.35;1.92;;;15.30;99.90;;;;;;6219741;23;20017;-79
2023/08/08 01:57:44;;;;;;;5.47;1.10;;;15.40;99.90;;;;;;6219784;23;20022;-79
2023/08/08 02:00:11;;;;;;;7.18;1.40;;;15.40;99.90;;;;;;6219687;23;20326;-79
2023/08/08 02:02:37;;;;;;;5.90;1.55;;;15.40;99.90;;;;;;6219620;23;20020;-79
2023/08/08 02:05:06;;;;;;;11.60;1.67;;;15.40;99.90;;;;;;6214265;23;20020;-79
2023/08/08 02:07:31;;;;;;;8.02;2.00;;;15.40;99.90;;;;;;6214514;23;20025;-79
2023/08/08 02:09:57;;;;;;;8.13;1.98;;;15.30;99.90;;;;;;6216412;23;20021;-79
2023/08/08 02:12:22;;;;;;;10.52;1.67;;;15.40;99.90;;;;;;6189571;23;20394;-79
2023/08/08 02:14:51;;;;;;;8.10;1.33;;;15.40;99.90;;;;;;6216051;23;20021;-79
2023/08/08 02:17:16;;;;;;;9.48;1.38;;;15.40;99.90;;;;;;6189499;23;20100;-79
2023/08/08 02:19:42;;;;;;;4.97;1.27;;;15.50;99.90;;;;;;6189536;23;20020;-79
2023/08/08 02:22:08;;;;;;;7.18;1.48;;;15.50;99.90;;;;;;6189479;23;20020;-79
2023/08/08 02:24:34;;;;;;;6.60;1.23;;;15.40;99.90;;;;;;6189345;23;20016;-78
2023/08/08 02:27:00;;;;;;;9.95;1.48;;;15.40;99.90;;;;;;6189460;23;20023;-79
2023/08/08 02:29:25;;;;;;;7.07;1.58;;;15.50;99.90;;;;;;6189355;23;20042;-79
2023/08/08 02:31:51;;;;;;;6.40;1.58;;;15.40;99.90;;;;;;6189410;23;20064;-79
2023/08/08 02:34:16;;;;;;;3.08;0.95;;;15.40;99.90;;;;;;6189446;23;20468;-79
2023/08/08 02:36:42;;;;;;;8.55;1.15;;;15.40;99.90;;;;;;6189389;23;20009;-79
2023/08/08 02:39:08;;;;;;;7.47;1.30;;;15.40;99.90;;;;;;6189414;23;20016;-79
2023/08/08 02:41:33;;;;;;;7.13;1.27;;;15.40;99.90;;;;;;6189772;23;20070;-78
2023/08/08 02:43:59;;;;;;;6.60;2.00;;;15.40;99.90;;;;;;6189353;23;20012;-78
2023/08/08 02:46:25;;;;;;;8.25;1.85;;;15.40;99.90;;;;;;6189464;23;20024;-78
2023/08/08 02:48:50;;;;;;;7.15;1.55;;;15.40;99.90;;;;;;6190188;23;20028;-79
2023/08/08 02:51:16;;;;;;;8.77;1.70;;;15.40;99.90;;;;;;6217923;23;20021;-78
2023/08/08 02:53:42;;;;;;;7.30;2.08;;;15.40;99.90;;;;;;6191318;23;20016;-78
2023/08/08 02:56:07;;;;;;;8.95;1.52;;;15.40;99.90;;;;;;6191262;23;20028;-79
2023/08/08 02:58:33;;;;;;;6.43;1.50;;;15.40;99.90;;;;;;6218247;23;20020;-78
2023/08/08 03:00:58;;;;;;;7.18;1.85;;;15.30;99.90;;;;;;6191291;23;20388;-78
2023/08/08 03:03:24;;;;;;;5.47;1.67;;;15.30;99.90;;;;;;6191260;23;20020;-79
2023/08/08 03:05:50;;;;;;;7.63;1.63;;;15.30;99.90;;;;;;6216426;23;20016;-79
2023/08/08 03:08:15;;;;;;;6.70;1.27;;;15.30;99.90;;;;;;6221307;23;20024;-79
2023/08/08 03:10:47;;;;;;;8.93;1.77;;;15.20;99.90;;;;;;6221434;23;20051;-79
2023/08/08 03:13:13;;;;;;;7.75;1.90;;;15.20;99.90;;;;;;6221379;23;20052;-79
2023/08/08 03:15:38;;;;;;;5.68;1.80;;;15.20;99.90;;;;;;6221439;23;20016;-77
2023/08/08 03:18:04;;;;;;;8.82;1.90;;;15.20;99.90;;;;;;6221205;23;20016;-78
2023/08/08 03:20:30;;;;;;;8.50;1.50;;;15.20;99.90;;;;;;6221148;23;20459;-78
2023/08/08 03:22:56;;;;;;;8.50;1.40;;;15.20;99.90;;;;;;6221202;23;20016;-79
2023/08/08 03:25:21;;;;;;;5.25;1.23;;;15.20;99.90;;;;;;6221254;23;20027;-79
2023/08/08 03:27:47;;;;;;;5.45;1.70;;;15.20;99.90;;;;;;6221205;23;20018;-78
2023/08/08 03:30:13;;;;;;;6.72;1.20;;;15.20;99.90;;;;;;6221045;23;20095;-78
2023/08/08 03:32:39;;;;;;;8.88;1.75;;;15.10;99.90;;;;;;6221110;23;20117;-79
2023/08/08 03:35:06;;;;;;;5.10;1.17;;;15.10;99.90;;;;;;6220945;23;20044;-78
2023/08/08 03:37:31;;;;;;;5.72;1.50;;;15.10;99.90;;;;;;6248143;23;20043;-79
2023/08/08 03:39:57;;;;;;;8.23;1.42;;;15.10;99.90;;;;;;6221317;23;20444;-78
2023/08/08 03:42:22;;;;;;;5.70;1.35;;;15.10;99.90;;;;;;6221080;23;20021;-79
2023/08/08 03:44:48;;;;;;;4.15;1.02;;;15.10;99.90;;;;;;6220946;23;20020;-78
2023/08/08 03:47:14;;;;;;;8.07;1.50;;;15.10;99.90;;;;;;6248048;23;20012;-78
2023/08/08 03:49:39;;;;;;;9.27;1.58;;;15.00;99.90;;;;;;6220678;23;20095;-79
2023/08/08 03:52:05;;;;;;;4.35;1.10;;;15.00;99.90;;;;;;6220907;23;20058;-79
2023/08/08 03:54:31;;;;;;;11.05;1.52;;;15.00;99.90;;;;;;6220698;23;20463;-77
2023/08/08 03:56:57;;;;;;;5.80;1.95;;;15.00;99.90;;;;;;6247410;23;20062;-78
2023/08/08 03:59:22;;;;;;;7.72;1.55;;;15.10;99.90;;;;;;6220126;23;20020;-78
2023/08/08 04:01:48;;;;;;;5.50;1.30;;;15.10;99.90;;;;;;6246728;23;20297;-78
2023/08/08 04:04:16;;;;;;;7.90;1.50;;;15.10;99.90;;;;;;6219351;23;20020;-77
2023/08/08 04:06:42;;;;;;;8.15;1.52;;;15.10;99.90;;;;;;6220950;23;20020;-79
2023/08/08 04:09:08;;;;;;;5.75;1.40;;;15.10;99.90;;;;;;6220579;23;20016;-79
2023/08/08 04:11:36;;;;;;;8.40;1.67;;;15.10;99.90;;;;;;6247725;23;20023;-78
2023/08/08 04:14:02;;;;;;;5.82;1.30;;;15.10;99.90;;;;;;6220532;23;20020;-79
2023/08/08 04:16:28;;;;;;;7.25;1.30;;;15.10;99.90;;;;;;6220525;23;20019;-78
2023/08/08 04:18:54;;;;;;;7.00;1.38;;;15.10;99.90;;;;;;6220552;23;20058;-79
2023/08/08 04:21:19;;;;;;;8.98;1.40;;;15.10;99.90;;;;;;6220596;23;20020;-79
2023/08/08 04:23:45;;;;;;;4.32;1.13;;;15.00;99.90;;;;;;6220474;23;20531;-78
2023/08/08 04:26:10;;;;;;;8.13;1.50;;;15.10;99.90;;;;;;6220491;23;20099;-78
2023/08/08 04:28:36;;;;;;;8.38;1.63;;;15.10;99.90;;;;;;6217186;23;20023;-79
2023/08/08 04:31:02;;;;;;;4.60;1.30;;;15.10;99.90;;;;;;6220375;23;20031;-78
2023/08/08 04:33:27;;;;;;;8.88;1.58;;;15.10;99.90;;;;;;6220296;23;20018;-79
2023/08/08 04:35:53;;;;;;;9.65;2.28;;;15.10;99.90;;;;;;6220400;23;20020;-78
2023/08/08 04:38:21;;;;;;;7.68;1.70;;;15.10;99.90;;;;;;6220218;23;20085;-78
2023/08/08 04:40:47;;;;;;;9.80;1.70;;;15.10;99.90;;;;;;6220363;23;20020;-78
2023/08/08 04:43:12;;;;;;;11.50;2.00;;;15.10;99.90;;;;;;6220302;23;20345;-78
2023/08/08 04:45:38;;;;;;;8.93;1.85;;;15.00;99.90;;;;;;6220297;23;20031;-79
2023/08/08 04:48:04;;;;;;;9.25;1.70;;;15.10;99.90;;;;;;6247353;23;20008;-78
2023/08/08 04:50:29;;;;;;;6.97;1.67;;;15.10;99.90;;;;;;6220496;23;20113;-79
2023/08/08 04:52:55;;;;;;;8.40;1.40;;;15.10;99.90;;;;;;6245560;23;20115;-78
2023/08/08 04:55:23;;;;;;;10.52;2.17;;;15.10;99.90;;;;;;6220190;23;20107;-78
2023/08/08 04:57:49;;;;;;;7.50;1.60;;;15.10;99.90;;;;;;6220070;23;20405;-78
2023/08/08 05:00:15;;;;;;;7.68;1.88;;;15.10;99.90;;;;;;6247299;23;20444;-78
2023/08/08 05:02:41;;;;;;;9.10;1.77;;;15.10;99.90;;;;;;6247212;23;20096;-79
2023/08/08 05:05:09;;;;;;;6.68;1.42;;;15.20;99.90;;;;;;6219853;23;20379;-78
2023/08/08 05:07:37;;;;;;;6.70;1.63;;;15.20;99.90;;;;;;6220018;23;20056;-78
2023/08/08 05:10:03;;;;;;;7.32;1.10;;;15.20;99.90;;;;;;6219931;23;20020;-78
2023/08/08 05:12:29;;;;;;;7.68;1.80;;;15.20;99.90;;;;;;6246820;23;20118;-79
2023/08/08 05:14:55;;;;;;;7.22;1.50;;;15.20;99.90;;;;;;6220010;23;20073;-79
2023/08/08 05:17:21;;;;;;;7.00;1.60;;;15.20;99.90;;;;;;6220042;23;20016;-78
2023/08/08 05:19:46;;;;;;;7.25;1.45;;;15.20;99.90;;;;;;6220050;23;20085;-79
2023/08/08 05:22:12;;;;;;;6.30;1.42;;;15.20;99.90;;;;;;6219794;23;20047;-78
2023/08/08 05:24:38;;;;;;;8.65;1.50;;;15.20;99.90;;;;;;6220185;23;20048;-78
2023/08/08 05:27:04;;;;;;;6.65;1.40;;;15.20;99.90;;;;;;6246664;23;20023;-77
2023/08/08 05:29:29;;;;;;;6.53;1.20;;;15.20;99.90;;;;;;6246977;23;20020;-78
2023/08/08 05:31:55;;;;;;;8.80;1.60;;;15.30;99.90;;;;;;6219776;23;20020;-79
2023/08/08 05:34:23;;;;;;;8.80;1.77;;;15.30;99.90;;;;;;6219689;23;20379;-78
2023/08/08 05:36:49;;;;;;;4.10;1.30;;;15.30;99.90;;;;;;6246877;23;20014;-79
2023/08/08 05:39:15;;;;;;;5.63;1.52;;;15.20;99.90;;;;;;6219731;23;20020;-78
2023/08/08 05:41:40;;;;;;;6.88;1.77;;;15.30;99.90;;;;;;6219779;23;20035;-78
2023/08/08 05:44:06;;;;;;;6.35;1.50;;;15.20;99.90;;;;;;6219764;23;20317;-79
2023/08/08 05:46:32;;;;;;;7.80;1.50;;;15.30;99.90;;;;;;6219786;23;20024;-78
2023/08/08 05:48:57;;;;;;;7.28;1.65;;;15.20;99.90;;;;;;6219512;23;20314;-78
2023/08/08 05:51:23;;;;;;;8.80;1.60;;;15.20;99.90;;;;;;6219680;23;20012;-78
2023/08/08 05:53:51;;;;;;;7.18;1.70;;;15.20;99.90;;;;;;6219427;23;20082;-79
2023/08/08 05:56:17;;;;;;;6.43;1.65;;;15.20;99.90;;;;;;6219466;23;20016;-78
2023/08/08 05:58:44;;;;;;;6.88;1.30;;;15.30;99.90;;;;;;6220028;23;20403;-78
2023/08/08 06:01:11;;;;;;;7.15;1.45;;;15.40;99.90;;;;;;6246671;23;20015;-78
2023/08/08 06:03:37;;;;;;;8.57;2.30;;;15.50;99.90;;;;;;6246553;23;20027;-79
2023/08/08 06:06:06;;;;;;;9.48;1.70;;;15.70;99.90;;;;;;6219213;23;20103;-79
2023/08/08 06:08:32;;;;;;;8.32;2.00;;;15.90;99.90;;;;;;6246234;23;20541;-79
2023/08/08 06:10:58;;;;;;;10.23;1.40;;;16.00;99.90;;;;;;6219506;23;20440;-79
2023/08/08 06:13:23;;;;;;;8.05;1.70;;;16.10;99.90;;;;;;6219319;23;20018;-78
2023/08/08 06:15:49;;;;;;;9.10;1.73;;;16.20;99.90;;;;;;6219623;23;20401;-79
2023/08/08 06:18:15;;;;;;;7.38;1.25;;;16.40;99.90;;;;;;6219595;23;20352;-78
2023/08/08 06:20:41;;;;;;;5.80;1.27;;;16.40;99.90;;;;;;6246714;23;20050;-79
2023/08/08 06:23:07;;;;;;;6.97;1.35;;;16.50;99.90;;;;;;6246395;23;20074;-79
2023/08/08 06:25:35;;;;;;;8.32;1.20;;;16.60;99.90;;;;;;6246263;23;20393;-79
2023/08/08 06:28:01;;;;;;;11.93;1.48;;;16.70;99.90;;;;;;6219380;23;20016;-79
2023/08/08 06:30:26;;;;;;;12.63;1.70;;;16.70;99.90;;;;;;6219318;23;20035;-79
2023/08/08 06:32:52;;;;;;;7.57;1.15;;;16.70;99.90;;;;;;6246204;23;20024;-79
2023/08/08 06:35:18;;;;;;;8.30;1.25;;;16.70;99.90;;;;;;6246149;23;20332;-79
2023/08/08 06:37:44;;;;;;;7.18;1.83;;;16.80;99.90;;;;;;6218298;23;20436;-77
2023/08/08 06:40:11;;;;;;;9.88;1.30;;;16.80;99.90;;;;;;6246327;23;20318;-77
2023/08/08 06:42:36;;;;;;;10.60;1.67;;;16.80;99.90;;;;;;6246062;23;20032;-77
2023/08/08 06:45:02;;;;;;;8.95;1.10;;;17.00;99.90;;;;;;6219097;23;20352;-85
2023/08/08 06:47:28;;;;;;;6.50;1.40;;;17.00;99.90;;;;;;6246314;23;20020;-78
2023/08/08 06:49:54;;;;;;;7.28;1.27;;;17.10;99.90;;;;;;6245884;23;20031;-79
2023/08/08 06:52:21;;;;;;;6.60;1.38;;;17.10;99.90;;;;;;6218962;23;20016;-79
2023/08/08 06:54:47;;;;;;;7.40;1.42;;;17.20;99.90;;;;;;6246151;23;20017;-79
2023/08/08 06:57:12;;;;;;;6.63;1.30;;;17.30;99.90;;;;;;6219032;23;20008;-79
2023/08/08 06:59:38;;;;;;;8.00;1.10;;;17.50;99.90;;;;;;6246219;23;20043;-80
2023/08/08 07:02:04;;;;;;;9.82;1.30;;;17.30;99.90;;;;;;6219195;23;20012;-78
2023/08/08 07:04:30;;;;;;;5.75;1.02;;;17.30;99.90;;;;;;6218717;23;20016;-78
2023/08/08 07:06:55;;;;;;;5.53;1.42;;;17.20;99.90;;;;;;6219111;23;20317;-78
2023/08/08 07:09:21;;;;;;;8.80;1.63;;;17.10;99.90;;;;;;6218831;23;20016;-78
2023/08/08 07:11:47;;;;;;;8.35;1.70;;;17.00;99.90;;;;;;6218833;23;20017;-78
2023/08/08 07:14:13;;;;;;;5.93;1.02;;;17.00;99.90;;;;;;6217156;23;20023;-78
2023/08/08 07:16:39;;;;;;;7.35;1.10;;;16.90;99.90;;;;;;6218933;23;20070;-79
2023/08/08 07:19:05;;;;;;;6.72;1.65;;;17.00;99.90;;;;;;6245280;23;20404;-78
2023/08/08 07:21:31;;;;;;;7.82;1.10;;;17.00;99.90;;;;;;6245368;23;20468;-79
2023/08/08 07:23:57;;;;;;;7.25;1.35;;;17.10;99.90;;;;;;6245694;23;20023;-79
2023/08/08 07:26:26;;;;;;;11.73;1.88;;;17.20;99.90;;;;;;6218523;23;20048;-79
2023/08/08 07:28:51;;;;;;;9.85;1.50;;;17.10;99.90;;;;;;6219048;23;20020;-78
2023/08/08 07:31:17;;;;;;;4.57;1.30;;;17.10;99.90;;;;;;6245530;23;20109;-78
2023/08/08 07:33:42;;;;;;;6.47;1.38;;;16.90;99.90;;;;;;6218917;23;20505;-78
2023/08/08 07:36:08;;;;;;;8.63;1.30;;;17.00;99.90;;;;;;6219972;23;20012;-79
2023/08/08 07:38:34;;;;;;;9.35;2.13;;;16.90;99.90;;;;;;6219257;23;20131;-79
2023/08/08 07:40:59;;;;;;;6.78;1.00;;;17.00;99.90;;;;;;6220665;23;20035;-78
2023/08/08 07:43:25;;;;;;;7.10;1.20;;;17.00;99.90;;;;;;6220203;23;20023;-78
2023/08/08 07:45:51;;;;;;;8.57;1.33;;;17.10;99.90;;;;;;6247780;23;20016;-79
2023/08/08 07:48:17;;;;;;;6.25;1.02;;;17.20;99.90;;;;;;6247455;23;20012;-78
2023/08/08 07:50:42;;;;;;;6.20;1.15;;;17.20;99.90;;;;;;6220624;23;20436;-78
2023/08/08 07:53:08;;;;;;;5.15;1.00;;;17.20;99.90;;;;;;6247325;23;20046;-79
2023/08/08 07:55:34;;;;;;;8.02;1.40;;;17.00;99.90;;;;;;6220384;23;20317;-77
2023/08/08 07:57:59;;;;;;;4.22;0.88;;;17.10;99.90;;;;;;6220619;23;20024;-77
2023/08/08 08:00:26;;;;;;;7.35;1.25;;;17.00;99.90;;;;;;6220455;23;20016;-77
2023/08/08 08:02:51;;;;;;;8.98;1.33;;;16.80;99.90;;;;;;6220490;23;20028;-79
2023/08/08 08:05:18;;;;;;;5.68;1.13;;;16.80;99.90;;;;;;6220268;23;20048;-79
2023/08/08 08:07:44;;;;;;;5.60;1.27;;;16.80;99.90;;;;;;6219225;23;20091;-85
2023/08/08 08:10:13;;;;;;;6.50;1.08;;;16.70;99.90;;;;;;6220563;23;20058;-86
2023/08/08 08:12:40;;;;;;;4.03;1.05;;;16.70;99.90;;;;;;6220356;23;20444;-85
2023/08/08 08:15:06;;;;;;;5.50;1.35;;;16.60;99.90;;;;;;6220090;23;20344;-81
2023/08/08 08:17:32;;;;;;;6.53;1.40;;;16.60;99.90;;;;;;6220219;23;20052;-86
2023/08/08 08:19:58;;;;;;;7.68;1.30;;;16.70;99.90;;;;;;6215840;23;20024;-77
2023/08/08 08:22:24;;;;;;;6.55;1.20;;;16.80;99.90;;;;;;6220277;23;20016;-77
2023/08/08 08:24:50;;;;;;;6.32;1.20;;;16.90;99.90;;;;;;6220375;23;20020;-77
2023/08/08 08:27:15;;;;;;;6.97;1.45;;;17.00;99.90;;;;;;6220300;23;20008;-77
2023/08/08 08:29:44;;;;;;;7.82;1.70;;;17.20;99.90;;;;;;6219996;23;20078;-79
2023/08/08 08:32:09;;;;;;;5.65;1.80;;;17.10;99.90;;;;;;6220335;23;20020;-78
2023/08/08 08:34:38;;;;;;;8.32;1.00;;;17.10;99.90;;;;;;6220282;23;20020;-79
2023/08/08 08:37:04;;;;;;;10.45;1.50;;;17.10;99.90;;;;;;6219881;23;20023;-78
2023/08/08 08:39:29;;;;;;;14.30;2.30;;;17.00;99.90;;;;;;6220349;23;20020;-77
2023/08/08 08:42:04;;;;;;;9.75;1.55;;;16.70;99.90;;;;;;6220361;23;20016;-78
2023/08/08 08:44:34;;;;;;;11.98;1.65;;;16.40;99.90;;;;;;6220281;23;20015;-77
2023/08/08 08:47:02;;;;;;;10.38;1.70;;;16.10;99.90;;;;;;6219968;23;20420;-77
2023/08/08 08:49:30;;;;;;;7.45;1.35;;;16.10;99.90;;;;;;6247286;23;20073;-77
2023/08/08 08:52:00;;;;;;;6.25;1.63;;;15.90;99.90;;;;;;6220097;23;20043;-77
2023/08/08 08:54:28;;;;;;;4.85;1.17;;;16.00;99.90;;;;;;6220555;23;20016;-78
2023/08/08 08:57:09;;;;;;;6.93;1.38;;;16.10;99.90;;;;;;6219855;23;20023;-77
2023/08/08 08:59:38;;;;;;;6.57;1.20;;;16.10;99.90;;;;;;6247349;23;20016;-78
2023/08/08 09:02:10;;;;;;;5.40;1.02;;;16.10;99.90;;;;;;6245584;23;20101;-77
2023/08/08 09:04:36;;;;;;;;;;;16.40;99.90;;;;;;6215584;23;20016;-78
2023/08/08 09:07:05;;;;;;;10.82;1.40;;;16.50;99.90;;;;;;6214997;23;20315;-78
2023/08/08 09:09:34;;;;;;;4.72;1.00;;;16.60;99.90;;;;;;6214889;23;20020;-79
2023/08/08 09:12:03;;;;;;;5.55;1.15;;;16.70;99.90;;;;;;6189905;23;20024;-78
2023/08/08 09:14:29;;;;;;;8.07;1.30;;;16.70;99.90;;;;;;6214950;23;20024;-78
2023/08/08 09:16:55;;;;;;;7.43;1.08;;;16.60;99.90;;;;;;6189744;23;20013;-78
2023/08/08 09:19:21;;;;;;;5.07;1.23;;;16.50;99.90;;;;;;6189759;23;20027;-78
2023/08/08 09:21:48;;;;;;;8.30;1.42;;;16.40;99.90;;;;;;6189704;23;20040;-79
2023/08/08 09:24:14;;;;;;;7.60;1.20;;;16.30;99.90;;;;;;6214814;23;20100;-79
2023/08/08 09:26:40;;;;;;;8.73;1.25;;;16.50;99.90;;;;;;6214784;23;20052;-78
2023/08/08 09:29:06;;;;;;;4.55;0.95;;;16.70;99.90;;;;;;6189589;23;20318;-78
2023/08/08 09:31:34;;;;;;;3.33;0.80;;;16.80;99.90;;;;;;6214737;23;20024;-78
2023/08/08 09:34:02;;;;;;;5.82;1.25;;;17.10;99.90;;;;;;6216299;23;20437;-79
2023/08/08 09:36:28;;;;;;;5.25;1.25;;;17.20;99.90;;;;;;6214789;23;20021;-79
2023/08/08 09:38:54;;;;;;;5.68;1.00;;;17.40;99.90;;;;;;6189663;23;20467;-78
2023/08/08 09:41:21;;;;;;;7.38;1.27;;;17.40;99.90;;;;;;6216529;23;20009;-78
2023/08/08 09:43:48;;;;;;;4.28;1.00;;;17.50;99.90;;;;;;6216564;23;20030;-79
2023/08/08 09:46:15;;;;;;;5.35;0.85;;;17.70;99.90;;;;;;6216524;23;20012;-79
2023/08/08 09:48:41;;;;;;;6.80;1.08;;;17.70;99.90;;;;;;6189619;23;21955;-79
2023/08/08 09:51:08;;;;;;;3.92;0.60;;;17.70;99.90;;;;;;6214671;23;20032;-78
2023/08/08 09:53:34;;;;;;;5.78;1.17;;;17.80;99.90;;;;;;6189520;23;20084;-78
2023/08/08 09:56:04;;;;;;;9.43;1.45;;;17.80;99.90;;;;;;6216432;23;20021;-79
2023/08/08 09:58:30;;;;;;;6.57;1.38;;;17.90;99.90;;;;;;6216004;23;20040;-79
2023/08/08 10:00:56;;;;;;;6.72;1.23;;;17.90;99.90;;;;;;6189531;23;20017;-79
2023/08/08 10:03:22;;;;;;;7.00;1.23;;;18.00;99.90;;;;;;6187752;23;20105;-79
2023/08/08 10:05:50;;;;;;;5.72;0.98;;;17.90;99.90;;;;;;6213734;23;20020;-79
2023/08/08 10:08:16;;;;;;;9.27;1.42;;;17.90;99.90;;;;;;6219412;23;20024;-79
2023/08/08 10:10:45;;;;;;;5.82;1.27;;;18.00;99.90;;;;;;6219508;23;20024;-79
2023/08/08 10:13:19;;;;;;;7.50;1.60;;;18.00;99.90;;;;;;6219419;23;20440;-80
2023/08/08 10:15:45;;;;;;;4.32;1.35;;;18.10;99.90;;;;;;6219615;23;20464;-79
2023/08/08 10:18:13;;;;;;;8.98;1.13;;;18.10;99.90;;;;;;6246265;23;20023;-79
2023/08/08 10:20:45;;;;;;;8.40;1.00;;;18.10;99.90;;;;;;6219391;23;20326;-80
2023/08/08 10:23:11;;;;;;;6.85;1.58;;;18.10;99.90;;;;;;6219540;23;20395;-78
2023/08/08 10:25:36;;;;;;;7.22;1.17;;;18.00;99.90;;;;;;6219418;23;20087;-80
2023/08/08 10:28:13;;;;;;;11.50;1.27;;;18.00;99.90;;;;;;6219465;23;20051;-79
2023/08/08 10:30:53;;;;;;;11.10;1.50;;;18.00;99.90;;;;;;6246432;23;20081;-79
2023/08/08 10:33:21;;;;;;;7.97;1.17;;;18.20;99.90;;;;;;6246655;23;20016;-78
2023/08/08 10:36:01;;;;;;;10.43;1.40;;;18.20;99.90;;;;;;6245016;23;20023;-79
2023/08/08 10:38:46;;;;;;;6.03;1.10;;;18.30;99.90;;;;;;6246637;23;20062;-79
2023/08/08 10:41:17;;;;;;;7.72;1.42;;;18.40;99.90;;;;;;6246662;23;20024;-79
2023/08/08 10:43:56;;;;;;;7.65;1.30;;;18.40;99.90;;;;;;6219546;23;20017;-79
2023/08/08 10:46:28;;;;;;;5.97;1.40;;;18.50;99.90;;;;;;6246521;23;20028;-79
2023/08/08 10:48:59;;;;;;;7.72;1.23;;;18.60;99.90;;;;;;6246543;23;20039;-78
2023/08/08 10:51:42;;;;;;;7.38;1.50;;;18.30;99.90;;;;;;6219566;23;20016;-79
2023/08/08 10:54:29;;;;;;;;;;;17.90;99.90;;;;;;6219857;23;20344;-79
2023/08/08 10:56:56;;;;;;;11.70;1.55;;;17.80;99.90;;;;;;6244571;23;19915;-79
2023/08/08 10:59:29;;;;;;;7.20;1.27;;;17.90;99.90;;;;;;6246410;23;20020;-79
2023/08/08 11:01:56;;;;;;;9.15;1.88;;;18.10;99.90;;;;;;6219269;23;20322;-80
2023/08/08 11:04:24;;;;;;;11.20;1.40;;;18.30;99.90;;;;;;6246004;23;20020;-79
2023/08/08 11:06:50;;;;;;;9.15;1.60;;;18.60;99.90;;;;;;6219203;23;20016;-78
2023/08/08 11:09:19;;;;;;;4.55;1.48;;;18.70;99.90;;;;;;6246303;23;20009;-79
2023/08/08 11:11:54;;;;;;;6.00;1.27;;;18.80;99.90;;;;;;6248363;23;20027;-79
2023/08/08 11:14:21;;;;;;;8.33;1.33;;;18.80;99.90;;;;;;6221177;23;20016;-79
2023/08/08 11:16:49;;;;;;;13.43;1.90;;;18.90;99.90;;;;;;6220846;23;20312;-79
2023/08/08 11:19:22;;;;;;;6.95;1.23;;;19.00;99.90;;;;;;6247844;23;20324;-79
2023/08/08 11:21:56;;;;;;;5.63;1.30;;;18.90;99.90;;;;;;6220842;23;20440;-79
2023/08/08 11:24:22;;;;;;;6.75;1.48;;;18.60;99.90;;;;;;6248386;23;20020;-80
2023/08/08 11:27:24;;;;;;;8.75;1.55;;;18.20;99.90;;;;;;6220901;23;20023;-79
2023/08/08 11:30:00;;;;;;;8.85;1.58;;;17.70;99.90;;;;;;6220976;23;20051;-79
2023/08/08 11:32:42;;;;;;;6.57;1.65;;;17.50;99.90;;;;;;6220943;23;20348;-79
2023/08/08 11:35:08;;;;;;;;;;;17.60;99.90;;;;;;6221521;23;20069;-79
2023/08/08 11:37:35;;;;;;;7.15;1.30;;;17.80;99.90;;;;;;6246865;23;19990;-80
2023/08/08 11:40:12;;;;;;;12.90;1.80;;;18.10;99.90;;;;;;6248151;23;20035;-79
2023/08/08 11:42:38;;;;;;;6.65;1.23;;;18.20;99.90;;;;;;6248006;23;20012;-79
2023/08/08 11:45:04;;;;;;;7.68;1.33;;;18.40;99.90;;;;;;6247556;23;20314;-79
2023/08/08 11:47:35;;;;;;;8.85;1.88;;;18.50;99.90;;;;;;6220580;23;20395;-79
2023/08/08 11:50:07;;;;;;;6.57;1.20;;;18.70;99.90;;;;;;6247999;23;20103;-78
2023/08/08 11:52:35;;;;;;;8.63;1.88;;;18.80;99.90;;;;;;6247854;23;20091;-79
2023/08/08 11:55:01;;;;;;;14.02;1.30;;;18.90;99.90;;;;;;6247544;23;20031;-79
2023/08/08 11:57:27;;;;;;;6.32;1.48;;;18.70;99.90;;;;;;6220620;23;20012;-79
2023/08/08 11:59:57;;;;;;;7.40;1.85;;;18.70;99.90;;;;;;6220597;23;20027;-79
2023/08/08 12:02:23;;;;;;;7.18;1.33;;;18.70;99.90;;;;;;6247901;23;20020;-78
2023/08/08 12:04:50;;;;;;;6.82;1.23;;;18.70;99.90;;;;;;6215485;23;20020;-79
2023/08/08 12:07:24;;;;;;;13.70;1.60;;;18.90;99.90;;;;;;6215840;23;20332;-79
2023/08/08 12:09:53;;;;;;;7.97;1.33;;;19.00;99.90;;;;;;6217040;23;20021;-79
2023/08/08 12:15:36;;;;;;;8.10;1.27;;;19.00;99.90;;;;;;6186501;23;20068;-79
2023/08/08 12:18:55;;;;;;;8.95;1.45;;;18.90;99.90;;;;;;6171784;23;20026;-80
2023/08/08 12:21:14;;;;;;;10.23;1.60;;;18.90;99.90;;;;;;6150712;23;20025;-79
2023/08/08 12:23:52;;;;;;;4.68;1.40;;;18.90;99.90;;;;;;6155543;23;20506;-79
2023/08/08 12:26:18;;;;;;;7.18;1.10;;;18.90;99.90;;;;;;6156713;23;20045;-79
2023/08/08 12:28:44;;;;;;;7.38;1.65;;;19.00;99.90;;;;;;6155374;23;20017;-79
2023/08/08 12:31:10;;;;;;;9.18;1.35;;;19.00;99.90;;;;;;6157374;23;20100;-79
2023/08/08 12:33:35;;;;;;;8.45;1.60;;;18.80;99.90;;;;;;6155435;23;20045;-79
2023/08/08 12:36:01;;;;;;;6.75;1.40;;;18.90;99.90;;;;;;6155575;23;20025;-79
2023/08/08 12:38:26;;;;;;;7.45;1.27;;;18.80;99.90;;;;;;6157300;23;20024;-79
2023/08/08 12:40:52;;;;;;;10.43;1.42;;;18.80;99.90;;;;;;6157222;23;20009;-78
2023/08/08 12:43:18;;;;;;;10.50;1.88;;;18.50;99.90;;;;;;6155373;23;20022;-79
2023/08/08 12:45:45;;;;;;;9.88;1.65;;;18.60;99.90;;;;;;6157254;23;20036;-78
2023/08/08 12:48:11;;;;;;;9.23;3.17;;;18.70;99.90;;;;;;6155545;23;20075;-79
2023/08/08 12:50:37;;;;;;;10.70;1.60;;;18.60;99.90;;;;;;6156717;23;20068;-79
2023/08/08 12:53:04;;;;;;;11.18;1.70;;;18.40;99.90;;;;;;6155339;23;20028;-79